sensor_id;sensor_type;location;lat;lon;timestamp;P1;durP1;ratioP1;P2;durP2;ratioP2
11121;SDS011;5615;49.304;10.576;2023-05-08T00:00:44;9.18;;;8.38;;
11121;SDS011;5615;49.304;10.576;2023-05-08T00:03:10;9.05;;;8.15;;
11121;SDS011;5615;49.304;10.576;2023-05-08T00:05:37;8.95;;;8.05;;
11121;SDS011;5615;49.304;10.576;2023-05-08T00:08:07;8.60;;;7.80;;
11121;SDS011;5615;49.304;10.576;2023-05-08T00:10:34;9.35;;;8.40;;
11121;SDS011;5615;49.304;10.576;2023-05-08T00:13:00;8.65;;;7.72;;
11121;SDS011;5615;49.304;10.576;2023-05-08T00:15:27;8.88;;;7.90;;
11121;SDS011;5615;49.304;10.576;2023-05-08T00:17:54;8.38;;;7.68;;
11121;SDS011;5615;49.304;10.576;2023-05-08T00:20:20;8.27;;;7.47;;
11121;SDS011;5615;49.304;10.576;2023-05-08T00:22:47;8.95;;;8.05;;
11121;SDS011;5615;49.304;10.576;2023-05-08T00:25:15;8.55;;;7.80;;
11121;SDS011;5615;49.304;10.576;2023-05-08T00:27:42;8.93;;;7.70;;
11121;SDS011;5615;49.304;10.576;2023-05-08T00:30:08;8.05;;;7.25;;
11121;SDS011;5615;49.304;10.576;2023-05-08T00:32:36;8.15;;;7.45;;
11121;SDS011;5615;49.304;10.576;2023-05-08T00:35:02;8.32;;;7.53;;
11121;SDS011;5615;49.304;10.576;2023-05-08T00:37:29;8.70;;;7.88;;
11121;SDS011;5615;49.304;10.576;2023-05-08T00:39:56;8.30;;;7.50;;
11121;SDS011;5615;49.304;10.576;2023-05-08T00:42:24;8.27;;;7.40;;
11121;SDS011;5615;49.304;10.576;2023-05-08T00:44:50;7.57;;;6.88;;
11121;SDS011;5615;49.304;10.576;2023-05-08T00:47:17;8.45;;;7.55;;
11121;SDS011;5615;49.304;10.576;2023-05-08T00:49:46;8.25;;;7.45;;
11121;SDS011;5615;49.304;10.576;2023-05-08T00:52:13;7.78;;;7.07;;
11121;SDS011;5615;49.304;10.576;2023-05-08T00:54:40;8.13;;;7.43;;
11121;SDS011;5615;49.304;10.576;2023-05-08T00:57:07;8.00;;;7.30;;
11121;SDS011;5615;49.304;10.576;2023-05-08T00:59:35;7.68;;;6.93;;
11121;SDS011;5615;49.304;10.576;2023-05-08T01:02:05;8.32;;;7.53;;
11121;SDS011;5615;49.304;10.576;2023-05-08T01:04:33;7.85;;;7.15;;
11121;SDS011;5615;49.304;10.576;2023-05-08T01:07:01;8.10;;;7.30;;
11121;SDS011;5615;49.304;10.576;2023-05-08T01:09:28;8.40;;;7.30;;
11121;SDS011;5615;49.304;10.576;2023-05-08T01:11:57;8.90;;;8.00;;
11121;SDS011;5615;49.304;10.576;2023-05-08T01:14:42;7.93;;;7.13;;
11121;SDS011;5615;49.304;10.576;2023-05-08T01:17:17;8.18;;;7.38;;
11121;SDS011;5615;49.304;10.576;2023-05-08T01:19:54;8.40;;;7.60;;
11121;SDS011;5615;49.304;10.576;2023-05-08T01:22:35;10.80;;;9.70;;
11121;SDS011;5615;49.304;10.576;2023-05-08T01:25:21;9.03;;;8.07;;
11121;SDS011;5615;49.304;10.576;2023-05-08T01:28:07;8.57;;;7.77;;
11121;SDS011;5615;49.304;10.576;2023-05-08T01:30:57;9.03;;;7.80;;
11121;SDS011;5615;49.304;10.576;2023-05-08T01:33:31;9.13;;;8.23;;
11121;SDS011;5615;49.304;10.576;2023-05-08T01:36:05;9.17;;;8.27;;
11121;SDS011;5615;49.304;10.576;2023-05-08T01:38:39;9.32;;;8.00;;
11121;SDS011;5615;49.304;10.576;2023-05-08T01:41:13;8.97;;;8.07;;
11121;SDS011;5615;49.304;10.576;2023-05-08T01:43:45;8.77;;;7.97;;
11121;SDS011;5615;49.304;10.576;2023-05-08T01:46:17;9.43;;;8.53;;
11121;SDS011;5615;49.304;10.576;2023-05-08T01:48:50;10.10;;;8.73;;
11121;SDS011;5615;49.304;10.576;2023-05-08T01:51:21;9.80;;;8.90;;
11121;SDS011;5615;49.304;10.576;2023-05-08T01:53:51;9.27;;;8.37;;
11121;SDS011;5615;49.304;10.576;2023-05-08T01:56:21;9.00;;;8.10;;
11121;SDS011;5615;49.304;10.576;2023-05-08T01:58:51;8.97;;;8.07;;
11121;SDS011;5615;49.304;10.576;2023-05-08T02:01:20;9.60;;;8.70;;
11121;SDS011;5615;49.304;10.576;2023-05-08T02:03:50;9.40;;;8.50;;
11121;SDS011;5615;49.304;10.576;2023-05-08T02:06:18;9.43;;;8.50;;
11121;SDS011;5615;49.304;10.576;2023-05-08T02:08:47;9.47;;;8.47;;
11121;SDS011;5615;49.304;10.576;2023-05-08T02:11:15;9.43;;;8.53;;
11121;SDS011;5615;49.304;10.576;2023-05-08T02:13:43;9.20;;;8.40;;
11121;SDS011;5615;49.304;10.576;2023-05-08T02:16:12;9.73;;;8.83;;
11121;SDS011;5615;49.304;10.576;2023-05-08T02:18:41;9.03;;;7.77;;
11121;SDS011;5615;49.304;10.576;2023-05-08T02:21:13;8.80;;;8.00;;
11121;SDS011;5615;49.304;10.576;2023-05-08T02:23:40;9.00;;;8.10;;
11121;SDS011;5615;49.304;10.576;2023-05-08T02:26:08;8.07;;;7.27;;
11121;SDS011;5615;49.304;10.576;2023-05-08T02:28:36;11.60;;;8.87;;
11121;SDS011;5615;49.304;10.576;2023-05-08T02:31:04;9.03;;;8.23;;
11121;SDS011;5615;49.304;10.576;2023-05-08T02:33:32;10.10;;;9.10;;
11121;SDS011;5615;49.304;10.576;2023-05-08T02:36:00;9.60;;;8.70;;
11121;SDS011;5615;49.304;10.576;2023-05-08T02:38:29;10.50;;;9.50;;
11121;SDS011;5615;49.304;10.576;2023-05-08T02:40:59;10.53;;;9.53;;
11121;SDS011;5615;49.304;10.576;2023-05-08T02:43:27;9.60;;;8.60;;
11121;SDS011;5615;49.304;10.576;2023-05-08T02:45:57;9.87;;;8.90;;
11121;SDS011;5615;49.304;10.576;2023-05-08T02:48:32;9.93;;;9.03;;
11121;SDS011;5615;49.304;10.576;2023-05-08T02:51:02;9.97;;;9.00;;
11121;SDS011;5615;49.304;10.576;2023-05-08T02:53:39;10.87;;;9.50;;
11121;SDS011;5615;49.304;10.576;2023-05-08T02:56:16;9.23;;;8.43;;
11121;SDS011;5615;49.304;10.576;2023-05-08T02:58:51;11.47;;;9.27;;
11121;SDS011;5615;49.304;10.576;2023-05-08T03:01:25;11.60;;;9.47;;
11121;SDS011;5615;49.304;10.576;2023-05-08T03:03:58;10.40;;;9.40;;
11121;SDS011;5615;49.304;10.576;2023-05-08T03:06:27;10.43;;;9.47;;
11121;SDS011;5615;49.304;10.576;2023-05-08T03:09:01;10.37;;;9.43;;
11121;SDS011;5615;49.304;10.576;2023-05-08T03:11:32;10.80;;;9.80;;
11121;SDS011;5615;49.304;10.576;2023-05-08T03:14:05;11.17;;;10.17;;
11121;SDS011;5615;49.304;10.576;2023-05-08T03:16:36;11.50;;;10.40;;
11121;SDS011;5615;49.304;10.576;2023-05-08T03:19:06;11.60;;;10.50;;
11121;SDS011;5615;49.304;10.576;2023-05-08T03:21:41;11.93;;;10.83;;
11121;SDS011;5615;49.304;10.576;2023-05-08T03:24:10;12.50;;;11.23;;
11121;SDS011;5615;49.304;10.576;2023-05-08T03:26:40;12.57;;;11.27;;
11121;SDS011;5615;49.304;10.576;2023-05-08T03:29:08;13.17;;;11.80;;
11121;SDS011;5615;49.304;10.576;2023-05-08T03:31:35;13.63;;;12.33;;
11121;SDS011;5615;49.304;10.576;2023-05-08T03:34:02;13.50;;;12.17;;
11121;SDS011;5615;49.304;10.576;2023-05-08T03:36:29;14.57;;;12.50;;
11121;SDS011;5615;49.304;10.576;2023-05-08T03:38:58;13.70;;;12.40;;
11121;SDS011;5615;49.304;10.576;2023-05-08T03:41:26;15.00;;;13.50;;
11121;SDS011;5615;49.304;10.576;2023-05-08T03:43:53;14.73;;;13.27;;
11121;SDS011;5615;49.304;10.576;2023-05-08T03:46:20;15.93;;;13.50;;
11121;SDS011;5615;49.304;10.576;2023-05-08T03:48:48;14.40;;;13.00;;
11121;SDS011;5615;49.304;10.576;2023-05-08T03:51:16;15.17;;;12.90;;
11121;SDS011;5615;49.304;10.576;2023-05-08T03:53:43;15.67;;;14.00;;
11121;SDS011;5615;49.304;10.576;2023-05-08T03:56:10;14.17;;;12.77;;
11121;SDS011;5615;49.304;10.576;2023-05-08T03:58:40;14.90;;;13.47;;
11121;SDS011;5615;49.304;10.576;2023-05-08T04:01:14;16.73;;;14.13;;
11121;SDS011;5615;49.304;10.576;2023-05-08T04:03:53;17.60;;;14.73;;
11121;SDS011;5615;49.304;10.576;2023-05-08T04:06:24;15.23;;;13.63;;
11121;SDS011;5615;49.304;10.576;2023-05-08T04:09:00;15.70;;;14.13;;
11121;SDS011;5615;49.304;10.576;2023-05-08T04:11:30;16.30;;;14.70;;
11121;SDS011;5615;49.304;10.576;2023-05-08T04:14:04;14.57;;;13.13;;
11121;SDS011;5615;49.304;10.576;2023-05-08T04:16:37;14.60;;;13.10;;
11121;SDS011;5615;49.304;10.576;2023-05-08T04:19:06;15.13;;;13.60;;
11121;SDS011;5615;49.304;10.576;2023-05-08T04:21:38;16.33;;;14.73;;
11121;SDS011;5615;49.304;10.576;2023-05-08T04:24:08;14.87;;;13.40;;
11121;SDS011;5615;49.304;10.576;2023-05-08T04:26:38;19.33;;;15.43;;
11121;SDS011;5615;49.304;10.576;2023-05-08T04:29:07;17.93;;;14.33;;
11121;SDS011;5615;49.304;10.576;2023-05-08T04:31:34;16.40;;;14.33;;
11121;SDS011;5615;49.304;10.576;2023-05-08T04:34:02;15.40;;;13.33;;
11121;SDS011;5615;49.304;10.576;2023-05-08T04:36:29;16.27;;;14.67;;
11121;SDS011;5615;49.304;10.576;2023-05-08T04:38:57;18.60;;;14.83;;
11121;SDS011;5615;49.304;10.576;2023-05-08T04:41:24;16.20;;;14.30;;
11121;SDS011;5615;49.304;10.576;2023-05-08T04:43:51;16.93;;;15.23;;
11121;SDS011;5615;49.304;10.576;2023-05-08T04:46:19;16.90;;;15.27;;
11121;SDS011;5615;49.304;10.576;2023-05-08T04:48:48;14.77;;;13.33;;
11121;SDS011;5615;49.304;10.576;2023-05-08T04:51:15;16.27;;;14.67;;
11121;SDS011;5615;49.304;10.576;2023-05-08T04:53:41;15.83;;;14.30;;
11121;SDS011;5615;49.304;10.576;2023-05-08T04:56:08;16.83;;;14.30;;
11121;SDS011;5615;49.304;10.576;2023-05-08T04:58:34;16.10;;;14.50;;
11121;SDS011;5615;49.304;10.576;2023-05-08T05:01:01;17.17;;;15.47;;
11121;SDS011;5615;49.304;10.576;2023-05-08T05:03:29;18.03;;;15.10;;
11121;SDS011;5615;49.304;10.576;2023-05-08T05:05:56;16.67;;;15.00;;
11121;SDS011;5615;49.304;10.576;2023-05-08T05:08:23;16.90;;;15.23;;
11121;SDS011;5615;49.304;10.576;2023-05-08T05:10:50;16.30;;;14.70;;
11121;SDS011;5615;49.304;10.576;2023-05-08T05:13:17;15.60;;;14.00;;
11121;SDS011;5615;49.304;10.576;2023-05-08T05:15:44;16.47;;;14.77;;
11121;SDS011;5615;49.304;10.576;2023-05-08T05:18:11;17.20;;;15.43;;
11121;SDS011;5615;49.304;10.576;2023-05-08T05:20:39;16.80;;;15.10;;
11121;SDS011;5615;49.304;10.576;2023-05-08T05:23:06;17.27;;;15.57;;
11121;SDS011;5615;49.304;10.576;2023-05-08T05:25:33;16.37;;;14.77;;
11121;SDS011;5615;49.304;10.576;2023-05-08T05:28:00;17.90;;;16.20;;
11121;SDS011;5615;49.304;10.576;2023-05-08T05:30:26;16.97;;;15.17;;
11121;SDS011;5615;49.304;10.576;2023-05-08T05:32:53;16.87;;;15.07;;
11121;SDS011;5615;49.304;10.576;2023-05-08T05:35:19;17.17;;;15.37;;
11121;SDS011;5615;49.304;10.576;2023-05-08T05:37:47;17.17;;;15.37;;
11121;SDS011;5615;49.304;10.576;2023-05-08T05:40:14;16.70;;;15.03;;
11121;SDS011;5615;49.304;10.576;2023-05-08T05:42:41;18.23;;;15.13;;
11121;SDS011;5615;49.304;10.576;2023-05-08T05:45:13;17.90;;;15.97;;
11121;SDS011;5615;49.304;10.576;2023-05-08T05:47:43;16.10;;;14.50;;
11121;SDS011;5615;49.304;10.576;2023-05-08T05:50:09;15.50;;;13.90;;
11121;SDS011;5615;49.304;10.576;2023-05-08T05:52:36;14.40;;;13.00;;
11121;SDS011;5615;49.304;10.576;2023-05-08T05:55:05;15.40;;;13.90;;
11121;SDS011;5615;49.304;10.576;2023-05-08T05:57:32;14.73;;;13.27;;
11121;SDS011;5615;49.304;10.576;2023-05-08T05:59:58;16.00;;;14.40;;
11121;SDS011;5615;49.304;10.576;2023-05-08T06:02:25;16.63;;;13.67;;
11121;SDS011;5615;49.304;10.576;2023-05-08T06:04:52;16.73;;;14.90;;
11121;SDS011;5615;49.304;10.576;2023-05-08T06:07:18;19.77;;;14.50;;
11121;SDS011;5615;49.304;10.576;2023-05-08T06:09:45;16.57;;;14.73;;
11121;SDS011;5615;49.304;10.576;2023-05-08T06:12:13;16.30;;;14.60;;
11121;SDS011;5615;49.304;10.576;2023-05-08T06:14:40;15.70;;;14.00;;
11121;SDS011;5615;49.304;10.576;2023-05-08T06:17:07;14.17;;;12.87;;
11121;SDS011;5615;49.304;10.576;2023-05-08T06:19:33;14.77;;;13.37;;
11121;SDS011;5615;49.304;10.576;2023-05-08T06:22:00;14.10;;;12.80;;
11121;SDS011;5615;49.304;10.576;2023-05-08T06:24:27;14.60;;;13.20;;
11121;SDS011;5615;49.304;10.576;2023-05-08T06:26:54;14.67;;;13.37;;
11121;SDS011;5615;49.304;10.576;2023-05-08T06:29:22;15.17;;;13.67;;
11121;SDS011;5615;49.304;10.576;2023-05-08T06:31:49;15.10;;;13.60;;
11121;SDS011;5615;49.304;10.576;2023-05-08T06:34:15;15.03;;;13.53;;
11121;SDS011;5615;49.304;10.576;2023-05-08T06:36:42;15.17;;;13.77;;
11121;SDS011;5615;49.304;10.576;2023-05-08T06:39:09;14.97;;;13.47;;
11121;SDS011;5615;49.304;10.576;2023-05-08T06:41:35;14.87;;;13.40;;
11121;SDS011;5615;49.304;10.576;2023-05-08T06:44:02;14.10;;;12.70;;
11121;SDS011;5615;49.304;10.576;2023-05-08T06:46:30;14.03;;;12.73;;
11121;SDS011;5615;49.304;10.576;2023-05-08T06:48:57;14.47;;;13.07;;
11121;SDS011;5615;49.304;10.576;2023-05-08T06:51:23;13.97;;;12.57;;
11121;SDS011;5615;49.304;10.576;2023-05-08T06:53:50;13.93;;;12.63;;
11121;SDS011;5615;49.304;10.576;2023-05-08T06:56:16;14.00;;;12.60;;
11121;SDS011;5615;49.304;10.576;2023-05-08T06:58:43;13.97;;;12.67;;
11121;SDS011;5615;49.304;10.576;2023-05-08T07:01:09;14.00;;;12.60;;
11121;SDS011;5615;49.304;10.576;2023-05-08T07:03:37;14.07;;;12.67;;
11121;SDS011;5615;49.304;10.576;2023-05-08T07:06:06;14.77;;;12.00;;
11121;SDS011;5615;49.304;10.576;2023-05-08T07:08:33;13.17;;;11.87;;
11121;SDS011;5615;49.304;10.576;2023-05-08T07:11:00;14.20;;;12.90;;
11121;SDS011;5615;49.304;10.576;2023-05-08T07:13:27;13.40;;;12.10;;
11121;SDS011;5615;49.304;10.576;2023-05-08T07:15:54;13.10;;;11.80;;
11121;SDS011;5615;49.304;10.576;2023-05-08T07:18:21;16.73;;;12.20;;
11121;SDS011;5615;49.304;10.576;2023-05-08T07:20:49;13.85;;;12.40;;
11121;SDS011;5615;49.304;10.576;2023-05-08T07:23:16;14.68;;;13.05;;
11121;SDS011;5615;49.304;10.576;2023-05-08T07:25:42;14.48;;;13.07;;
11121;SDS011;5615;49.304;10.576;2023-05-08T07:28:10;15.32;;;12.80;;
11121;SDS011;5615;49.304;10.576;2023-05-08T07:30:36;13.75;;;12.00;;
11121;SDS011;5615;49.304;10.576;2023-05-08T07:33:03;12.27;;;11.15;;
11121;SDS011;5615;49.304;10.576;2023-05-08T07:35:29;12.73;;;11.52;;
11121;SDS011;5615;49.304;10.576;2023-05-08T07:37:57;12.80;;;11.63;;
11121;SDS011;5615;49.304;10.576;2023-05-08T07:40:24;13.02;;;11.82;;
11121;SDS011;5615;49.304;10.576;2023-05-08T07:42:50;12.13;;;11.00;;
11121;SDS011;5615;49.304;10.576;2023-05-08T07:45:17;12.88;;;11.60;;
11121;SDS011;5615;49.304;10.576;2023-05-08T07:47:47;12.07;;;10.98;;
11121;SDS011;5615;49.304;10.576;2023-05-08T07:50:14;11.70;;;10.50;;
11121;SDS011;5615;49.304;10.576;2023-05-08T07:52:41;11.88;;;10.68;;
11121;SDS011;5615;49.304;10.576;2023-05-08T07:55:09;11.77;;;10.77;;
11121;SDS011;5615;49.304;10.576;2023-05-08T07:57:36;12.43;;;11.23;;
11121;SDS011;5615;49.304;10.576;2023-05-08T08:00:03;11.93;;;10.55;;
11121;SDS011;5615;49.304;10.576;2023-05-08T08:02:30;12.02;;;10.93;;
11121;SDS011;5615;49.304;10.576;2023-05-08T08:04:57;11.95;;;10.90;;
11121;SDS011;5615;49.304;10.576;2023-05-08T08:07:24;12.38;;;11.18;;
11121;SDS011;5615;49.304;10.576;2023-05-08T08:09:50;11.50;;;10.43;;
11121;SDS011;5615;49.304;10.576;2023-05-08T08:12:18;12.32;;;11.00;;
11121;SDS011;5615;49.304;10.576;2023-05-08T08:14:45;11.65;;;10.55;;
11121;SDS011;5615;49.304;10.576;2023-05-08T08:17:12;13.50;;;11.75;;
11121;SDS011;5615;49.304;10.576;2023-05-08T08:19:38;14.45;;;11.95;;
11121;SDS011;5615;49.304;10.576;2023-05-08T08:22:05;11.95;;;10.93;;
11121;SDS011;5615;49.304;10.576;2023-05-08T08:24:31;12.43;;;11.20;;
11121;SDS011;5615;49.304;10.576;2023-05-08T08:26:58;13.10;;;11.80;;
11121;SDS011;5615;49.304;10.576;2023-05-08T08:29:26;13.95;;;12.60;;
11121;SDS011;5615;49.304;10.576;2023-05-08T08:31:53;12.98;;;11.77;;
11121;SDS011;5615;49.304;10.576;2023-05-08T08:34:19;13.50;;;12.20;;
11121;SDS011;5615;49.304;10.576;2023-05-08T08:36:46;13.70;;;12.40;;
11121;SDS011;5615;49.304;10.576;2023-05-08T08:39:13;13.15;;;11.93;;
11121;SDS011;5615;49.304;10.576;2023-05-08T08:41:40;13.00;;;11.80;;
11121;SDS011;5615;49.304;10.576;2023-05-08T08:44:06;13.40;;;12.10;;
11121;SDS011;5615;49.304;10.576;2023-05-08T08:46:34;15.27;;;13.65;;
11121;SDS011;5615;49.304;10.576;2023-05-08T08:49:04;13.32;;;12.05;;
11121;SDS011;5615;49.304;10.576;2023-05-08T08:51:35;15.07;;;13.52;;
11121;SDS011;5615;49.304;10.576;2023-05-08T08:54:06;13.85;;;12.55;;
11121;SDS011;5615;49.304;10.576;2023-05-08T08:56:35;13.30;;;12.07;;
11121;SDS011;5615;49.304;10.576;2023-05-08T08:59:04;14.18;;;12.88;;
11121;SDS011;5615;49.304;10.576;2023-05-08T09:01:35;13.85;;;12.55;;
11121;SDS011;5615;49.304;10.576;2023-05-08T09:04:04;14.02;;;12.73;;
11121;SDS011;5615;49.304;10.576;2023-05-08T09:06:33;12.93;;;11.80;;
11121;SDS011;5615;49.304;10.576;2023-05-08T09:09:02;14.10;;;12.70;;
11121;SDS011;5615;49.304;10.576;2023-05-08T09:11:29;14.75;;;13.35;;
11121;SDS011;5615;49.304;10.576;2023-05-08T09:13:56;12.82;;;11.40;;
11121;SDS011;5615;49.304;10.576;2023-05-08T09:16:23;13.35;;;12.07;;
11121;SDS011;5615;49.304;10.576;2023-05-08T09:18:53;12.90;;;11.52;;
11121;SDS011;5615;49.304;10.576;2023-05-08T09:21:20;14.10;;;12.80;;
11121;SDS011;5615;49.304;10.576;2023-05-08T09:23:53;14.02;;;12.63;;
11121;SDS011;5615;49.304;10.576;2023-05-08T09:26:27;13.20;;;12.00;;
11121;SDS011;5615;49.304;10.576;2023-05-08T09:29:09;13.10;;;11.98;;
11121;SDS011;5615;49.304;10.576;2023-05-08T09:31:37;13.90;;;12.57;;
11121;SDS011;5615;49.304;10.576;2023-05-08T09:34:06;13.35;;;12.25;;
11121;SDS011;5615;49.304;10.576;2023-05-08T09:36:33;13.60;;;12.35;;
11121;SDS011;5615;49.304;10.576;2023-05-08T09:39:00;12.82;;;11.52;;
11121;SDS011;5615;49.304;10.576;2023-05-08T09:41:26;18.33;;;11.50;;
11121;SDS011;5615;49.304;10.576;2023-05-08T09:44:02;12.82;;;11.73;;
11121;SDS011;5615;49.304;10.576;2023-05-08T09:46:31;14.02;;;12.73;;
11121;SDS011;5615;49.304;10.576;2023-05-08T09:48:59;13.70;;;12.40;;
11121;SDS011;5615;49.304;10.576;2023-05-08T09:51:29;13.20;;;11.90;;
11121;SDS011;5615;49.304;10.576;2023-05-08T09:53:57;13.15;;;11.75;;
11121;SDS011;5615;49.304;10.576;2023-05-08T09:56:31;13.55;;;12.27;;
11121;SDS011;5615;49.304;10.576;2023-05-08T09:58:58;14.10;;;12.27;;
11121;SDS011;5615;49.304;10.576;2023-05-08T10:01:29;13.88;;;12.45;;
11121;SDS011;5615;49.304;10.576;2023-05-08T10:03:57;13.73;;;12.48;;
11121;SDS011;5615;49.304;10.576;2023-05-08T10:06:24;13.35;;;12.05;;
11121;SDS011;5615;49.304;10.576;2023-05-08T10:11:48;13.40;;;12.00;;
11121;SDS011;5615;49.304;10.576;2023-05-08T10:14:17;14.25;;;12.90;;
11121;SDS011;5615;49.304;10.576;2023-05-08T10:16:44;13.35;;;12.15;;
11121;SDS011;5615;49.304;10.576;2023-05-08T10:19:13;12.02;;;10.90;;
11121;SDS011;5615;49.304;10.576;2023-05-08T10:21:41;12.88;;;11.73;;
11121;SDS011;5615;49.304;10.576;2023-05-08T10:24:13;13.40;;;12.23;;
11121;SDS011;5615;49.304;10.576;2023-05-08T10:26:43;12.68;;;11.57;;
11121;SDS011;5615;49.304;10.576;2023-05-08T10:29:19;12.77;;;11.65;;
11121;SDS011;5615;49.304;10.576;2023-05-08T10:31:50;13.27;;;12.18;;
11121;SDS011;5615;49.304;10.576;2023-05-08T10:34:21;13.60;;;12.30;;
11121;SDS011;5615;49.304;10.576;2023-05-08T10:36:48;14.23;;;12.82;;
11121;SDS011;5615;49.304;10.576;2023-05-08T10:39:17;13.93;;;12.63;;
11121;SDS011;5615;49.304;10.576;2023-05-08T10:41:45;12.68;;;11.43;;
11121;SDS011;5615;49.304;10.576;2023-05-08T10:44:14;12.88;;;11.75;;
11121;SDS011;5615;49.304;10.576;2023-05-08T10:46:42;13.18;;;11.98;;
11121;SDS011;5615;49.304;10.576;2023-05-08T10:49:15;14.02;;;12.82;;
11121;SDS011;5615;49.304;10.576;2023-05-08T10:51:50;13.88;;;12.57;;
11121;SDS011;5615;49.304;10.576;2023-05-08T10:54:25;12.75;;;11.65;;
11121;SDS011;5615;49.304;10.576;2023-05-08T10:57:09;13.05;;;11.65;;
11121;SDS011;5615;49.304;10.576;2023-05-08T10:59:37;13.18;;;11.98;;
11121;SDS011;5615;49.304;10.576;2023-05-08T11:02:04;12.95;;;11.82;;
11121;SDS011;5615;49.304;10.576;2023-05-08T11:04:32;13.65;;;12.35;;
11121;SDS011;5615;49.304;10.576;2023-05-08T11:06:59;14.68;;;13.38;;
11121;SDS011;5615;49.304;10.576;2023-05-08T11:09:27;13.85;;;12.65;;
11121;SDS011;5615;49.304;10.576;2023-05-08T11:14:52;13.30;;;12.00;;
11121;SDS011;5615;49.304;10.576;2023-05-08T11:17:23;13.10;;;11.90;;
11121;SDS011;5615;49.304;10.576;2023-05-08T11:19:53;12.90;;;11.80;;
11121;SDS011;5615;49.304;10.576;2023-05-08T11:22:22;13.02;;;11.88;;
11121;SDS011;5615;49.304;10.576;2023-05-08T11:24:52;13.52;;;12.20;;
11121;SDS011;5615;49.304;10.576;2023-05-08T11:27:31;15.10;;;12.02;;
11121;SDS011;5615;49.304;10.576;2023-05-08T11:30:22;13.98;;;12.57;;
11121;SDS011;5615;49.304;10.576;2023-05-08T11:33:12;13.88;;;12.55;;
11121;SDS011;5615;49.304;10.576;2023-05-08T11:35:44;13.48;;;12.23;;
11121;SDS011;5615;49.304;10.576;2023-05-08T11:38:13;13.73;;;12.55;;
11121;SDS011;5615;49.304;10.576;2023-05-08T11:40:45;13.23;;;12.10;;
11121;SDS011;5615;49.304;10.576;2023-05-08T11:43:24;12.88;;;11.77;;
11121;SDS011;5615;49.304;10.576;2023-05-08T11:46:06;13.68;;;12.25;;
11121;SDS011;5615;49.304;10.576;2023-05-08T11:48:39;13.45;;;12.35;;
11121;SDS011;5615;49.304;10.576;2023-05-08T11:51:05;12.98;;;11.80;;
11121;SDS011;5615;49.304;10.576;2023-05-08T11:53:32;13.95;;;12.10;;
11121;SDS011;5615;49.304;10.576;2023-05-08T11:56:00;14.30;;;12.85;;
11121;SDS011;5615;49.304;10.576;2023-05-08T11:58:28;13.75;;;12.45;;
11121;SDS011;5615;49.304;10.576;2023-05-08T12:00:55;14.10;;;12.90;;
11121;SDS011;5615;49.304;10.576;2023-05-08T12:03:22;13.52;;;12.15;;
11121;SDS011;5615;49.304;10.576;2023-05-08T12:05:50;19.73;;;13.57;;
11121;SDS011;5615;49.304;10.576;2023-05-08T12:08:18;14.85;;;13.45;;
11121;SDS011;5615;49.304;10.576;2023-05-08T12:10:48;14.30;;;12.90;;
11121;SDS011;5615;49.304;10.576;2023-05-08T12:13:16;14.73;;;13.32;;
11121;SDS011;5615;49.304;10.576;2023-05-08T12:15:45;13.38;;;12.00;;
11121;SDS011;5615;49.304;10.576;2023-05-08T12:18:13;14.30;;;13.02;;
11121;SDS011;5615;49.304;10.576;2023-05-08T12:20:40;16.70;;;15.05;;
11121;SDS011;5615;49.304;10.576;2023-05-08T12:23:08;15.10;;;13.60;;
11121;SDS011;5615;49.304;10.576;2023-05-08T12:25:35;14.50;;;13.07;;
11121;SDS011;5615;49.304;10.576;2023-05-08T12:28:03;14.48;;;13.05;;
11121;SDS011;5615;49.304;10.576;2023-05-08T12:30:31;15.25;;;13.73;;
11121;SDS011;5615;49.304;10.576;2023-05-08T12:32:59;15.57;;;14.18;;
11121;SDS011;5615;49.304;10.576;2023-05-08T12:35:27;14.40;;;12.90;;
11121;SDS011;5615;49.304;10.576;2023-05-08T12:37:53;15.43;;;13.93;;
11121;SDS011;5615;49.304;10.576;2023-05-08T12:40:26;15.50;;;13.95;;
11121;SDS011;5615;49.304;10.576;2023-05-08T12:42:54;15.40;;;14.05;;
11121;SDS011;5615;49.304;10.576;2023-05-08T12:45:22;15.10;;;13.80;;
11121;SDS011;5615;49.304;10.576;2023-05-08T12:47:50;15.88;;;14.43;;
11121;SDS011;5615;49.304;10.576;2023-05-08T12:50:20;15.85;;;14.35;;
11121;SDS011;5615;49.304;10.576;2023-05-08T12:52:47;16.17;;;14.73;;
11121;SDS011;5615;49.304;10.576;2023-05-08T12:55:20;15.85;;;14.43;;
11121;SDS011;5615;49.304;10.576;2023-05-08T12:57:49;14.80;;;13.50;;
11121;SDS011;5615;49.304;10.576;2023-05-08T13:00:23;14.80;;;13.50;;
11121;SDS011;5615;49.304;10.576;2023-05-08T13:02:50;14.13;;;12.85;;
11121;SDS011;5615;49.304;10.576;2023-05-08T13:05:20;16.55;;;15.15;;
11121;SDS011;5615;49.304;10.576;2023-05-08T13:07:48;14.90;;;13.60;;
11121;SDS011;5615;49.304;10.576;2023-05-08T13:10:15;14.95;;;13.55;;
11121;SDS011;5615;49.304;10.576;2023-05-08T13:12:43;14.95;;;13.55;;
11121;SDS011;5615;49.304;10.576;2023-05-08T13:15:10;14.85;;;13.52;;
11121;SDS011;5615;49.304;10.576;2023-05-08T13:17:37;15.23;;;13.93;;
11121;SDS011;5615;49.304;10.576;2023-05-08T13:20:03;15.20;;;13.80;;
11121;SDS011;5615;49.304;10.576;2023-05-08T13:22:32;14.38;;;13.18;;
11121;SDS011;5615;49.304;10.576;2023-05-08T13:24:59;15.02;;;13.63;;
11121;SDS011;5615;49.304;10.576;2023-05-08T13:27:26;14.98;;;13.52;;
11121;SDS011;5615;49.304;10.576;2023-05-08T13:29:52;15.10;;;13.73;;
11121;SDS011;5615;49.304;10.576;2023-05-08T13:32:19;14.52;;;13.23;;
11121;SDS011;5615;49.304;10.576;2023-05-08T13:34:46;15.45;;;13.90;;
11121;SDS011;5615;49.304;10.576;2023-05-08T13:37:12;14.82;;;13.55;;
11121;SDS011;5615;49.304;10.576;2023-05-08T13:39:40;14.63;;;13.13;;
11121;SDS011;5615;49.304;10.576;2023-05-08T13:42:07;15.13;;;13.82;;
11121;SDS011;5615;49.304;10.576;2023-05-08T13:44:33;15.88;;;14.45;;
11121;SDS011;5615;49.304;10.576;2023-05-08T13:47:00;14.90;;;13.63;;
11121;SDS011;5615;49.304;10.576;2023-05-08T13:49:26;14.70;;;13.40;;
11121;SDS011;5615;49.304;10.576;2023-05-08T13:51:53;16.20;;;14.52;;
11121;SDS011;5615;49.304;10.576;2023-05-08T13:54:20;15.20;;;13.82;;
11121;SDS011;5615;49.304;10.576;2023-05-08T13:56:48;14.02;;;12.75;;
11121;SDS011;5615;49.304;10.576;2023-05-08T13:59:15;15.73;;;14.23;;
11121;SDS011;5615;49.304;10.576;2023-05-08T14:01:42;14.85;;;13.57;;
11121;SDS011;5615;49.304;10.576;2023-05-08T14:04:08;15.10;;;13.85;;
11121;SDS011;5615;49.304;10.576;2023-05-08T14:06:35;14.55;;;13.27;;
11121;SDS011;5615;49.304;10.576;2023-05-08T14:09:02;17.50;;;13.40;;
11121;SDS011;5615;49.304;10.576;2023-05-08T14:11:28;15.25;;;13.70;;
11121;SDS011;5615;49.304;10.576;2023-05-08T14:13:56;15.55;;;14.10;;
11121;SDS011;5615;49.304;10.576;2023-05-08T14:16:23;13.77;;;12.57;;
11121;SDS011;5615;49.304;10.576;2023-05-08T14:18:49;14.07;;;12.57;;
11121;SDS011;5615;49.304;10.576;2023-05-08T14:21:16;14.95;;;13.60;;
11121;SDS011;5615;49.304;10.576;2023-05-08T14:23:42;15.52;;;14.13;;
11121;SDS011;5615;49.304;10.576;2023-05-08T14:26:09;15.50;;;13.95;;
11121;SDS011;5615;49.304;10.576;2023-05-08T14:28:36;14.88;;;13.38;;
11121;SDS011;5615;49.304;10.576;2023-05-08T14:31:04;13.57;;;12.27;;
11121;SDS011;5615;49.304;10.576;2023-05-08T14:33:30;15.48;;;12.57;;
11121;SDS011;5615;49.304;10.576;2023-05-08T14:35:57;13.02;;;11.85;;
11121;SDS011;5615;49.304;10.576;2023-05-08T14:38:24;13.75;;;12.45;;
11121;SDS011;5615;49.304;10.576;2023-05-08T14:40:50;12.43;;;11.35;;